Terminal Aerodrome Forecast
Issued by NWS

Current Version | Previous Version | Text Only | Print | Product List | Glossary On
Versions: 1 2 3 4 5 6 7 8 9 10 11 12 13 14 15
388
FTUS42 TJSJ 242327
TAFJBQ
TAF
TJBQ 242327Z 2500/2524 09012G16KT P6SM OVC060
     FM250400 12004KT P6SM SKC
     FM251400 08014KT P6SM FEW025
      AMD NOT SKED 2502/2511=

USA.gov is the U.S. government's official web portal to all federal, state and local government web resources and services.